createdAt,value
2022-08-25T00:00:40.959Z,75.68
2022-08-25T00:01:40.939Z,75.27
2022-08-25T00:02:40.935Z,75.64
2022-08-25T00:03:40.916Z,75.54
2022-08-25T00:04:40.871Z,75.34
2022-08-25T00:05:40.884Z,75.34
2022-08-25T00:06:40.852Z,75.45
2022-08-25T00:07:40.845Z,75.45
2022-08-25T00:08:40.843Z,75.34
2022-08-25T00:09:40.814Z,75.45
2022-08-25T00:10:40.810Z,75.45
2022-08-25T00:11:40.772Z,75.54
2022-08-25T00:12:40.809Z,75.45
2022-08-25T00:13:40.744Z,75.54
2022-08-25T00:14:40.745Z,75.64
2022-08-25T00:15:40.733Z,75.24
2022-08-25T00:16:40.712Z,75.14
2022-08-25T00:17:40.714Z,75.14
2022-08-25T00:18:40.677Z,74.84
2022-08-25T00:19:40.674Z,74.90
2022-08-25T00:20:40.686Z,74.71
2022-08-25T00:21:40.718Z,74.60
2022-08-25T00:22:40.624Z,74.37
2022-08-25T00:23:40.671Z,74.07
2022-08-25T00:24:40.597Z,74.17
2022-08-25T00:25:40.597Z,73.77
2022-08-25T00:26:40.567Z,73.63
2022-08-25T00:27:40.565Z,73.23
2022-08-25T00:28:40.710Z,72.97
2022-08-25T00:29:40.545Z,73.07
2022-08-25T00:30:40.606Z,73.67
2022-08-25T00:31:40.531Z,74.57
2022-08-25T00:32:40.492Z,75.01
2022-08-25T00:33:40.495Z,75.41
2022-08-25T00:34:40.490Z,75.81
2022-08-25T00:35:40.469Z,75.91
2022-08-25T00:36:40.440Z,76.01
2022-08-25T00:37:40.430Z,76.21
2022-08-25T00:38:40.431Z,75.91
2022-08-25T00:39:40.436Z,75.51
2022-08-25T00:40:40.402Z,75.34
2022-08-25T00:41:40.378Z,76.65
2022-08-25T00:42:40.343Z,76.95
2022-08-25T00:43:40.369Z,77.45
2022-08-25T00:44:40.346Z,77.55
2022-08-25T00:45:40.324Z,77.19
2022-08-25T00:46:40.381Z,77.09
2022-08-25T00:47:41.153Z,77.32
2022-08-25T00:48:40.292Z,77.62
2022-08-25T00:49:40.282Z,77.92
2022-08-25T00:50:40.271Z,78.77
2022-08-25T00:51:40.248Z,79.17
2022-08-25T00:52:40.248Z,79.27
2022-08-25T00:53:40.212Z,79.91
2022-08-25T00:54:40.215Z,80.01
2022-08-25T00:55:40.206Z,80.21
2022-08-25T00:56:40.174Z,80.71
2022-08-25T00:57:40.151Z,81.12
2022-08-25T00:58:40.138Z,81.82
2022-08-25T00:59:40.139Z,82.02
2022-08-25T01:00:40.152Z,82.12
2022-08-25T01:01:40.151Z,82.02
2022-08-25T01:02:40.159Z,81.82
2022-08-25T01:03:40.071Z,81.38
2022-08-25T01:04:40.055Z,81.18
2022-08-25T01:05:40.083Z,80.68
2022-08-25T01:06:40.048Z,80.13
2022-08-25T01:07:40.058Z,79.73
2022-08-25T01:08:40.055Z,79.19
2022-08-25T01:09:39.997Z,78.89
2022-08-25T01:10:40.001Z,78.59
2022-08-25T01:11:39.969Z,78.39
2022-08-25T01:12:39.990Z,78.15
2022-08-25T01:13:39.962Z,77.95
2022-08-25T01:14:39.923Z,77.75
2022-08-25T01:15:39.978Z,77.65
2022-08-25T01:16:39.907Z,77.65
2022-08-25T01:17:39.911Z,77.55
2022-08-25T01:18:39.902Z,77.55
2022-08-25T01:19:39.882Z,77.45
2022-08-25T01:20:39.852Z,77.45
2022-08-25T01:21:39.856Z,77.41
2022-08-25T01:22:39.830Z,77.41
2022-08-25T01:23:39.809Z,77.21
2022-08-25T01:24:39.820Z,77.11
2022-08-25T01:25:39.782Z,77.01
2022-08-25T01:26:39.776Z,77.01
2022-08-25T01:27:39.746Z,77.11
2022-08-25T01:28:39.777Z,77.15
2022-08-25T01:29:39.741Z,77.35
2022-08-25T01:30:39.796Z,77.48
2022-08-25T01:31:39.769Z,77.79
2022-08-25T01:32:39.689Z,78.22
2022-08-25T01:33:39.686Z,78.42
2022-08-25T01:34:39.781Z,78.53
2022-08-25T01:35:39.647Z,79.06
2022-08-25T01:36:39.637Z,79.27
2022-08-25T01:37:39.628Z,79.57
2022-08-25T01:38:39.660Z,79.91
2022-08-25T01:39:39.593Z,80.11
2022-08-25T01:40:39.605Z,80.11
2022-08-25T01:41:39.570Z,80.21
2022-08-25T01:42:39.581Z,80.41
2022-08-25T01:43:39.686Z,80.41
2022-08-25T01:44:39.530Z,80.85
2022-08-25T01:45:39.542Z,81.15
2022-08-25T01:46:39.544Z,81.46
2022-08-25T01:47:39.519Z,81.76
2022-08-25T01:48:39.467Z,81.99
2022-08-25T01:49:39.495Z,81.99
2022-08-25T01:50:39.470Z,82.10
2022-08-25T01:51:39.432Z,82.10
2022-08-25T01:52:39.442Z,82.20
2022-08-25T01:53:39.420Z,82.10
2022-08-25T01:54:39.418Z,82.10
2022-08-25T01:55:39.381Z,82.10
2022-08-25T01:56:39.416Z,81.90
2022-08-25T01:57:39.356Z,81.85
2022-08-25T01:58:39.417Z,81.56
2022-08-25T01:59:39.383Z,81.35
2022-08-25T02:00:39.317Z,81.05
2022-08-25T02:01:39.323Z,80.75
2022-08-25T02:02:42.488Z,80.75
2022-08-25T02:03:42.249Z,80.65
2022-08-25T02:04:39.331Z,80.41
2022-08-25T02:05:39.268Z,80.31
2022-08-25T02:06:39.231Z,80.21
2022-08-25T02:07:39.233Z,80.11
2022-08-25T02:08:39.219Z,79.91
2022-08-25T02:09:39.205Z,79.91
2022-08-25T02:10:39.229Z,79.91
2022-08-25T02:11:39.284Z,79.81
2022-08-25T02:12:39.163Z,79.91
2022-08-25T02:13:39.236Z,79.81
2022-08-25T02:14:39.130Z,79.71
2022-08-25T02:15:39.173Z,79.81
2022-08-25T02:16:39.154Z,79.81
2022-08-25T02:17:39.090Z,79.81
2022-08-25T02:18:39.107Z,79.81
2022-08-25T02:19:39.071Z,79.81
2022-08-25T02:20:39.078Z,79.71
2022-08-25T02:21:39.029Z,79.61
2022-08-25T02:22:39.551Z,79.50
2022-08-25T02:23:39.006Z,79.50
2022-08-25T02:24:38.997Z,79.61
2022-08-25T02:25:39.009Z,79.81
2022-08-25T02:26:38.992Z,80.05
2022-08-25T02:27:38.959Z,80.25
2022-08-25T02:28:38.946Z,80.55
2022-08-25T02:29:38.937Z,80.65
2022-08-25T02:30:39.020Z,80.65
2022-08-25T02:31:38.923Z,80.75
2022-08-25T02:32:38.885Z,80.75
2022-08-25T02:33:38.879Z,80.65
2022-08-25T02:34:38.884Z,80.65
2022-08-25T02:35:38.890Z,80.65
2022-08-25T02:36:38.858Z,80.65
2022-08-25T02:37:38.863Z,80.55
2022-08-25T02:38:38.825Z,80.55
2022-08-25T02:39:39.691Z,80.45
2022-08-25T02:40:38.792Z,80.55
2022-08-25T02:41:38.772Z,80.55
2022-08-25T02:42:38.754Z,80.55
2022-08-25T02:43:38.738Z,80.65
2022-08-25T02:44:38.746Z,80.58
2022-08-25T02:45:38.822Z,80.58
2022-08-25T02:46:38.720Z,80.79
2022-08-25T02:47:38.713Z,80.79
2022-08-25T02:48:38.694Z,80.89
2022-08-25T02:49:38.676Z,80.99
2022-08-25T02:50:38.661Z,80.79
2022-08-25T02:51:38.721Z,80.85
2022-08-25T02:52:38.620Z,80.65
2022-08-25T02:53:38.607Z,80.65
2022-08-25T02:54:38.612Z,80.35
2022-08-25T02:55:38.591Z,80.01
2022-08-25T02:56:38.747Z,79.81
2022-08-25T02:57:38.563Z,79.81
2022-08-25T02:58:38.536Z,79.61
2022-08-25T02:59:38.559Z,79.41
2022-08-25T03:00:38.503Z,78.97
2022-08-25T03:01:38.539Z,78.77
2022-08-25T03:02:38.483Z,78.56
2022-08-25T03:03:39.494Z,78.53
2022-08-25T03:04:38.645Z,78.73
2022-08-25T03:05:38.449Z,78.93
2022-08-25T03:06:38.437Z,79.13
2022-08-25T03:07:38.424Z,79.47
2022-08-25T03:08:38.433Z,79.57
2022-08-25T03:09:38.423Z,79.77
2022-08-25T03:10:38.382Z,79.87
2022-08-25T03:11:38.451Z,80.07
2022-08-25T03:12:38.358Z,80.17
2022-08-25T03:13:38.350Z,79.53
2022-08-25T03:14:38.315Z,79.43
2022-08-25T03:15:38.344Z,79.63
2022-08-25T03:16:38.349Z,79.63
2022-08-25T03:17:38.335Z,79.90
2022-08-25T03:18:38.264Z,80.10
2022-08-25T03:19:38.267Z,79.99
2022-08-25T03:20:38.285Z,79.90
2022-08-25T03:21:38.250Z,80.13
2022-08-25T03:22:38.217Z,80.33
2022-08-25T03:23:38.210Z,80.43
2022-08-25T03:24:38.197Z,80.54
2022-08-25T03:25:38.200Z,80.63
2022-08-25T03:26:38.173Z,80.24
2022-08-25T03:27:38.213Z,80.24
2022-08-25T03:28:38.141Z,80.04
2022-08-25T03:29:38.127Z,79.69
2022-08-25T03:30:38.160Z,79.69
2022-08-25T03:31:38.154Z,79.49
2022-08-25T03:32:38.101Z,79.60
2022-08-25T03:33:38.091Z,79.29
2022-08-25T03:34:38.086Z,79.39
2022-08-25T03:35:38.053Z,79.49
2022-08-25T03:36:38.061Z,79.39
2022-08-25T03:37:38.022Z,79.60
2022-08-25T03:38:38.015Z,79.93
2022-08-25T03:39:38.014Z,80.24
2022-08-25T03:40:38.012Z,80.57
2022-08-25T03:41:38.010Z,80.88
2022-08-25T03:42:39.155Z,81.18
2022-08-25T03:43:37.955Z,81.27
2022-08-25T03:44:37.947Z,81.27
2022-08-25T03:45:37.961Z,81.07
2022-08-25T03:46:37.907Z,80.98
2022-08-25T03:47:37.881Z,80.68
2022-08-25T03:48:37.934Z,80.43
2022-08-25T03:49:37.874Z,80.43
2022-08-25T03:50:37.869Z,80.33
2022-08-25T03:51:37.836Z,80.33
2022-08-25T03:52:41.901Z,80.33
2022-08-25T03:53:37.848Z,80.33
2022-08-25T03:54:37.816Z,80.43
2022-08-25T03:55:37.786Z,80.54
2022-08-25T03:56:37.810Z,80.74
2022-08-25T03:57:37.765Z,80.94
2022-08-25T03:58:37.736Z,81.18
2022-08-25T03:59:37.761Z,81.27
2022-08-25T04:00:37.727Z,81.62
2022-08-25T04:01:37.785Z,82.02
2022-08-25T04:02:37.757Z,82.32
2022-08-25T04:03:37.688Z,82.62
2022-08-25T04:04:37.659Z,82.76
2022-08-25T04:05:37.691Z,82.76
2022-08-25T04:06:37.638Z,82.86
2022-08-25T04:07:37.625Z,82.66
2022-08-25T04:08:37.605Z,82.66
2022-08-25T04:09:37.599Z,82.76
2022-08-25T04:10:37.598Z,82.76
2022-08-25T04:11:37.618Z,82.76
2022-08-25T04:12:37.563Z,82.76
2022-08-25T04:13:37.554Z,82.97
2022-08-25T04:14:37.529Z,82.97
2022-08-25T04:15:37.531Z,83.17
2022-08-25T04:16:37.564Z,83.37
2022-08-25T04:17:37.515Z,83.61
2022-08-25T04:18:37.489Z,83.91
2022-08-25T04:19:37.485Z,84.11
2022-08-25T04:20:37.454Z,84.31
2022-08-25T04:21:37.488Z,84.45
2022-08-25T04:22:37.506Z,84.31
2022-08-25T04:23:37.425Z,84.21
2022-08-25T04:24:37.422Z,84.01
2022-08-25T04:25:37.416Z,83.81
2022-08-25T04:26:37.377Z,83.71
2022-08-25T04:27:37.391Z,83.61
2022-08-25T04:28:37.364Z,83.61
2022-08-25T04:29:37.339Z,83.61
2022-08-25T04:30:37.352Z,83.71
2022-08-25T04:31:37.332Z,83.91
2022-08-25T04:32:37.298Z,84.11
2022-08-25T04:33:37.272Z,84.21
2022-08-25T04:34:37.284Z,84.31
2022-08-25T04:35:37.259Z,84.35
2022-08-25T04:36:37.259Z,84.35
2022-08-25T04:37:37.240Z,84.31
2022-08-25T04:38:37.230Z,84.21
2022-08-25T04:39:37.205Z,84.11
2022-08-25T04:40:37.246Z,84.21
2022-08-25T04:41:37.201Z,84.21
2022-08-25T04:42:37.180Z,84.21
2022-08-25T04:43:37.143Z,84.25
2022-08-25T04:44:37.169Z,84.25
2022-08-25T04:45:37.181Z,84.45
2022-08-25T04:46:37.092Z,84.65
2022-08-25T04:47:37.127Z,84.75
2022-08-25T04:48:37.113Z,84.85
2022-08-25T04:49:37.072Z,84.85
2022-08-25T04:50:37.054Z,84.75
2022-08-25T04:51:37.047Z,85.05
2022-08-25T04:52:37.043Z,85.16
2022-08-25T04:53:37.007Z,85.16
2022-08-25T04:54:37.330Z,85.25
2022-08-25T04:55:37.038Z,85.25
2022-08-25T04:56:37.016Z,85.25
2022-08-25T04:57:36.989Z,85.36
2022-08-25T04:58:36.981Z,85.16
2022-08-25T04:59:36.955Z,85.25
2022-08-25T05:00:36.982Z,85.05
2022-08-25T05:01:36.904Z,84.95
2022-08-25T05:02:36.903Z,84.71
2022-08-25T05:03:36.907Z,84.61
2022-08-25T05:04:36.944Z,84.51
2022-08-25T05:05:36.894Z,84.51
2022-08-25T05:06:36.891Z,84.31
2022-08-25T05:07:36.859Z,84.07
2022-08-25T05:08:36.820Z,83.67
2022-08-25T05:09:36.790Z,83.57
2022-08-25T05:10:36.779Z,83.37
2022-08-25T05:11:36.797Z,83.17
2022-08-25T05:12:36.792Z,82.86
2022-08-25T05:13:36.763Z,82.92
2022-08-25T05:14:36.728Z,82.92
2022-08-25T05:15:36.708Z,82.62
2022-08-25T05:16:36.787Z,82.72
2022-08-25T05:17:36.727Z,82.42
2022-08-25T05:18:36.698Z,82.12
2022-08-25T05:19:36.682Z,82.32
2022-08-25T05:20:36.655Z,82.22
2022-08-25T05:21:36.693Z,82.12
2022-08-25T05:22:36.642Z,82.02
2022-08-25T05:23:36.634Z,81.92
2022-08-25T05:24:36.620Z,82.42
2022-08-25T05:25:36.630Z,82.42
2022-08-25T05:26:36.594Z,82.02
2022-08-25T05:27:36.623Z,81.96
2022-08-25T05:28:36.577Z,81.96
2022-08-25T05:29:36.534Z,82.16
2022-08-25T05:30:36.555Z,82.36
2022-08-25T05:31:41.691Z,82.46
2022-08-25T05:32:36.548Z,82.66
2022-08-25T05:33:36.570Z,82.76
2022-08-25T05:34:36.481Z,82.97
2022-08-25T05:35:36.465Z,82.76
2022-08-25T05:36:36.512Z,82.86
2022-08-25T05:37:36.415Z,82.76
2022-08-25T05:38:36.410Z,82.86
2022-08-25T05:39:36.401Z,82.86
2022-08-25T05:40:36.388Z,82.86
2022-08-25T05:41:36.417Z,82.76
2022-08-25T05:42:36.361Z,82.86
2022-08-25T05:43:36.372Z,82.76
2022-08-25T05:44:37.169Z,82.86
2022-08-25T05:45:36.368Z,82.86
2022-08-25T05:46:36.308Z,82.86
2022-08-25T05:47:36.310Z,82.97
2022-08-25T05:48:36.315Z,83.03
2022-08-25T05:49:36.265Z,83.03
2022-08-25T05:50:36.275Z,82.92
2022-08-25T05:51:36.242Z,82.92
2022-08-25T05:52:36.295Z,82.82
2022-08-25T05:53:36.224Z,82.68
2022-08-25T05:54:36.294Z,82.78
2022-08-25T05:55:36.196Z,82.78
2022-08-25T05:56:36.200Z,82.58
2022-08-25T05:57:36.181Z,82.58
2022-08-25T05:58:36.148Z,82.68
2022-08-25T05:59:36.157Z,82.58
2022-08-25T06:00:36.110Z,82.48
2022-08-25T06:01:36.143Z,82.45
2022-08-25T06:02:36.106Z,82.34
2022-08-25T06:03:36.139Z,82.24
2022-08-25T06:04:38.535Z,82.04
2022-08-25T06:05:36.063Z,82.04
2022-08-25T06:06:36.038Z,82.14
2022-08-25T06:07:36.017Z,81.90
2022-08-25T06:08:36.002Z,81.80
2022-08-25T06:09:36.043Z,81.70
2022-08-25T06:10:35.990Z,81.70
2022-08-25T06:11:35.979Z,81.10
2022-08-25T06:12:36.076Z,81.20
2022-08-25T06:13:35.949Z,80.96
2022-08-25T06:14:35.943Z,80.76
2022-08-25T06:15:35.947Z,80.56
2022-08-25T06:16:35.969Z,80.56
2022-08-25T06:17:35.891Z,80.16
2022-08-25T06:18:35.886Z,80.02
2022-08-25T06:19:35.878Z,79.92
2022-08-25T06:20:35.877Z,79.52
2022-08-25T06:21:35.994Z,79.02
2022-08-25T06:22:35.823Z,78.88
2022-08-25T06:23:35.847Z,78.48
2022-08-25T06:24:35.800Z,78.28
2022-08-25T06:25:35.800Z,78.48
2022-08-25T06:26:35.793Z,77.67
2022-08-25T06:27:35.756Z,77.54
2022-08-25T06:28:35.768Z,77.44
2022-08-25T06:29:35.767Z,77.34
2022-08-25T06:30:35.712Z,77.24
2022-08-25T06:31:35.763Z,77.14
2022-08-25T06:32:35.692Z,76.64
2022-08-25T06:33:35.762Z,76.54
2022-08-25T06:34:35.695Z,76.60
2022-08-25T06:35:35.656Z,75.80
2022-08-25T06:36:35.636Z,76.10
2022-08-25T06:37:35.662Z,76.00
2022-08-25T06:38:35.601Z,76.30
2022-08-25T06:39:35.611Z,76.10
2022-08-25T06:40:35.669Z,76.50
2022-08-25T06:41:37.089Z,76.00
2022-08-25T06:42:35.566Z,76.10
2022-08-25T06:43:35.561Z,76.06
2022-08-25T06:44:35.522Z,76.06
2022-08-25T06:45:35.518Z,75.06
2022-08-25T06:46:36.384Z,74.76
2022-08-25T06:47:35.534Z,74.87
2022-08-25T06:48:35.515Z,74.96
2022-08-25T06:49:36.210Z,74.46
2022-08-25T06:50:35.470Z,74.56
2022-08-25T06:51:35.475Z,74.76
2022-08-25T06:52:35.431Z,74.37
2022-08-25T06:53:35.426Z,74.73
2022-08-25T06:54:35.416Z,74.33
2022-08-25T06:55:35.418Z,74.03
2022-08-25T06:56:35.394Z,74.22
2022-08-25T06:57:35.361Z,74.13
2022-08-25T06:58:35.371Z,74.03
2022-08-25T06:59:35.377Z,73.93
2022-08-25T07:00:35.387Z,73.89
2022-08-25T07:01:35.419Z,74.19
2022-08-25T07:02:35.662Z,73.79
2022-08-25T07:03:35.342Z,73.79
2022-08-25T07:04:35.329Z,73.49
2022-08-25T07:05:43.397Z,73.25
2022-08-25T07:06:35.519Z,72.56
2022-08-25T07:07:43.651Z,72.86
2022-08-25T07:08:35.225Z,72.92
2022-08-25T07:09:38.982Z,72.72
2022-08-25T07:10:35.209Z,72.32
2022-08-25T07:11:35.202Z,72.13
2022-08-25T07:12:35.157Z,71.72
2022-08-25T07:13:35.243Z,71.72
2022-08-25T07:14:35.139Z,72.02
2022-08-25T07:15:35.143Z,72.09
2022-08-25T07:16:35.173Z,71.69
2022-08-25T07:17:35.136Z,71.69
2022-08-25T07:18:35.113Z,71.49
2022-08-25T07:19:35.211Z,70.49
2022-08-25T07:20:35.066Z,70.39
2022-08-25T07:21:35.607Z,70.76
2022-08-25T07:22:35.073Z,70.65
2022-08-25T07:23:35.013Z,70.46
2022-08-25T07:24:35.012Z,70.56
2022-08-25T07:25:34.984Z,70.46
2022-08-25T07:26:37.709Z,70.95
2022-08-25T07:27:35.000Z,70.65
2022-08-25T07:28:34.971Z,70.53
2022-08-25T07:29:34.926Z,69.82
2022-08-25T07:30:34.937Z,69.92
2022-08-25T07:31:35.038Z,69.62
2022-08-25T07:32:34.896Z,69.09
2022-08-25T07:33:34.913Z,68.99
2022-08-25T07:34:34.884Z,68.70
2022-08-25T07:35:37.515Z,68.76
2022-08-25T07:36:34.902Z,68.26
2022-08-25T07:37:50.307Z,68.46
2022-08-25T07:38:34.833Z,68.16
2022-08-25T07:39:34.843Z,68.26
2022-08-25T07:40:34.845Z,68.07
2022-08-25T07:41:34.782Z,68.13
2022-08-25T07:42:34.770Z,68.33
2022-08-25T07:43:34.754Z,68.13
2022-08-25T07:44:34.737Z,66.80
2022-08-25T07:45:34.775Z,66.50
2022-08-25T07:46:34.738Z,66.27
2022-08-25T07:47:34.689Z,65.18
2022-08-25T07:48:34.689Z,65.08
2022-08-25T07:49:35.897Z,65.45
2022-08-25T07:50:34.682Z,64.95
2022-08-25T07:51:34.780Z,64.75
2022-08-25T07:52:34.653Z,64.75
2022-08-25T07:53:35.197Z,64.95
2022-08-25T07:54:35.225Z,64.95
2022-08-25T07:55:34.607Z,64.95
2022-08-25T07:56:34.612Z,65.02
2022-08-25T07:57:34.575Z,64.72
2022-08-25T07:58:34.553Z,64.42
2022-08-25T07:59:38.993Z,64.52
2022-08-25T08:00:34.541Z,64.42
2022-08-25T08:01:34.591Z,64.52
2022-08-25T08:02:34.615Z,64.09
2022-08-25T08:03:50.317Z,64.19
2022-08-25T08:04:34.478Z,64.19
2022-08-25T08:05:34.463Z,64.00
2022-08-25T08:06:34.435Z,63.67
2022-08-25T08:07:43.163Z,63.67
2022-08-25T08:08:34.456Z,63.07
2022-08-25T08:09:34.410Z,63.46
2022-08-25T08:11:34.448Z,63.57
2022-08-25T08:12:34.362Z,63.07
2022-08-25T08:13:38.012Z,63.17
2022-08-25T08:14:34.438Z,63.43
2022-08-25T08:15:34.327Z,63.24
2022-08-25T08:16:34.384Z,62.54
2022-08-25T08:17:34.337Z,62.61
2022-08-25T08:18:34.315Z,61.72
2022-08-25T08:19:34.262Z,61.62
2022-08-25T08:20:42.565Z,61.72
2022-08-25T08:21:34.480Z,61.82
2022-08-25T08:22:34.271Z,61.79
2022-08-25T08:23:34.232Z,61.29
2022-08-25T08:24:44.739Z,61.89
2022-08-25T08:25:34.220Z,61.79
2022-08-25T08:26:55.280Z,61.59
2022-08-25T08:27:34.170Z,60.96
2022-08-25T08:28:34.180Z,60.96
2022-08-25T08:29:34.218Z,60.86
2022-08-25T08:30:34.170Z,60.67
2022-08-25T08:31:34.177Z,60.57
2022-08-25T08:32:53.261Z,59.38
2022-08-25T08:33:34.112Z,59.67
2022-08-25T08:34:34.121Z,60.34
2022-08-25T08:35:34.077Z,59.52
2022-08-25T08:36:34.077Z,58.95
2022-08-25T08:37:34.033Z,58.95
2022-08-25T08:38:34.045Z,59.32
2022-08-25T08:39:34.022Z,58.73
2022-08-25T08:40:34.118Z,58.50
2022-08-25T08:41:48.915Z,59.19
2022-08-25T08:42:33.975Z,58.11
2022-08-25T08:43:33.986Z,58.40
2022-08-25T08:44:33.976Z,58.11
2022-08-25T08:45:35.416Z,58.40
2022-08-25T08:46:34.016Z,58.30
2022-08-25T08:47:33.939Z,57.61
2022-08-25T08:48:33.927Z,58.11
2022-08-25T08:49:33.896Z,57.90
2022-08-25T08:50:34.367Z,58.50
2022-08-25T08:51:33.898Z,58.77
2022-08-25T08:52:33.846Z,57.88
2022-08-25T08:53:34.269Z,57.75
2022-08-25T08:54:34.051Z,57.65
2022-08-25T08:55:33.912Z,57.35
2022-08-25T08:56:33.803Z,57.26
2022-08-25T08:57:33.798Z,57.13
2022-08-25T08:58:33.773Z,57.26
2022-08-25T08:59:33.766Z,57.65
2022-08-25T09:00:33.763Z,57.46
2022-08-25T09:01:33.794Z,57.46
2022-08-25T09:02:39.383Z,57.06
2022-08-25T09:03:33.782Z,57.13
2022-08-25T09:04:33.715Z,56.63
2022-08-25T09:05:37.247Z,56.71
2022-08-25T09:06:33.711Z,56.41
2022-08-25T09:07:33.740Z,55.52
2022-08-25T09:08:33.678Z,55.10
2022-08-25T09:09:35.919Z,54.71
2022-08-25T09:10:33.621Z,54.24
2022-08-25T09:11:33.597Z,54.63
2022-08-25T09:12:33.611Z,54.83
2022-08-25T09:13:33.574Z,55.03
2022-08-25T09:14:33.559Z,54.83
2022-08-25T09:15:40.998Z,54.41
2022-08-25T09:16:34.354Z,53.99
2022-08-25T09:17:33.539Z,53.39
2022-08-25T09:18:35.065Z,53.37
2022-08-25T09:19:33.529Z,52.87
2022-08-25T09:20:33.495Z,52.87
2022-08-25T09:21:33.470Z,52.78
2022-08-25T09:22:36.276Z,52.78
2022-08-25T09:23:33.439Z,52.98
2022-08-25T09:24:33.463Z,53.17
2022-08-25T09:25:53.427Z,53.37
2022-08-25T09:26:33.400Z,52.98
2022-08-25T09:27:33.388Z,52.68
2022-08-25T09:28:33.389Z,53.50
2022-08-25T09:29:33.401Z,53.30
2022-08-25T09:30:33.375Z,53.27
2022-08-25T09:31:33.420Z,51.40
2022-08-25T09:32:33.322Z,51.59
2022-08-25T09:33:34.271Z,50.88
2022-08-25T09:34:33.314Z,51.15
2022-08-25T09:35:33.328Z,50.34
2022-08-25T09:36:37.390Z,49.52
2022-08-25T09:37:33.270Z,49.13
2022-08-25T09:38:33.235Z,48.61
2022-08-25T09:39:33.243Z,49.01
2022-08-25T09:40:33.271Z,49.90
2022-08-25T09:41:33.206Z,49.60
2022-08-25T09:42:33.197Z,50.09
2022-08-25T09:43:33.203Z,50.61
2022-08-25T09:44:33.188Z,50.31
2022-08-25T09:45:33.170Z,50.73
2022-08-25T09:46:33.234Z,50.16
2022-08-25T09:47:33.126Z,51.59
2022-08-25T09:48:36.597Z,51.77
2022-08-25T09:49:33.129Z,51.07
2022-08-25T09:50:34.870Z,51.35
2022-08-25T09:51:38.131Z,49.06
2022-08-25T09:52:33.129Z,47.95
2022-08-25T09:53:33.703Z,47.44
2022-08-25T09:54:43.818Z,48.71
2022-08-25T09:55:33.068Z,48.59
2022-08-25T09:56:33.008Z,48.69
2022-08-25T09:57:33.008Z,48.82
2022-08-25T09:58:32.987Z,49.30
2022-08-25T09:59:35.230Z,48.61
2022-08-25T10:00:32.987Z,48.83
2022-08-25T10:01:34.868Z,49.43
2022-08-25T10:02:32.951Z,49.52
2022-08-25T10:03:36.457Z,49.04
2022-08-25T10:04:32.917Z,48.74
2022-08-25T10:05:33.221Z,49.45
2022-08-25T10:06:32.877Z,50.14
2022-08-25T10:07:32.897Z,49.04
2022-08-25T10:08:32.853Z,48.22
2022-08-25T10:09:32.856Z,47.80
2022-08-25T10:10:32.857Z,47.69
2022-08-25T10:11:32.850Z,46.88
2022-08-25T10:12:32.826Z,46.56
2022-08-25T10:13:32.811Z,45.77
2022-08-25T10:14:32.805Z,45.87
2022-08-25T10:15:32.828Z,46.58
2022-08-25T10:16:35.808Z,46.82
2022-08-25T10:17:33.535Z,48.94
2022-08-25T10:18:32.773Z,49.04
2022-08-25T10:19:32.763Z,48.42
2022-08-25T10:20:35.160Z,48.03
2022-08-25T10:21:32.694Z,48.61
2022-08-25T10:22:32.726Z,48.03
2022-08-25T10:23:32.667Z,47.71
2022-08-25T10:24:32.680Z,47.39
2022-08-25T10:25:32.623Z,47.41
2022-08-25T10:26:34.784Z,48.13
2022-08-25T10:27:32.623Z,47.26
2022-08-25T10:28:32.614Z,48.27
2022-08-25T10:29:32.790Z,48.79
2022-08-25T10:30:32.605Z,49.18
2022-08-25T10:31:33.086Z,48.86
2022-08-25T10:32:32.549Z,48.96
2022-08-25T10:33:32.752Z,48.74
2022-08-25T10:34:32.514Z,48.13
2022-08-25T10:35:32.521Z,47.92
2022-08-25T10:36:32.491Z,48.03
2022-08-25T10:37:32.673Z,48.13
2022-08-25T10:38:36.202Z,48.03
2022-08-25T10:39:36.496Z,47.63
2022-08-25T10:40:32.547Z,47.85
2022-08-25T10:41:32.443Z,48.54
2022-08-25T10:42:32.476Z,48.44
2022-08-25T10:43:32.421Z,48.03
2022-08-25T10:44:32.427Z,47.80
2022-08-25T10:45:32.475Z,47.31
2022-08-25T10:46:32.427Z,47.00
2022-08-25T10:47:32.357Z,46.70
2022-08-25T10:48:32.371Z,46.58
2022-08-25T10:49:32.327Z,46.41
2022-08-25T10:50:32.407Z,46.60
2022-08-25T10:51:32.306Z,46.62
2022-08-25T10:52:32.298Z,46.82
2022-08-25T10:53:32.335Z,46.92
2022-08-25T10:54:32.417Z,46.87
2022-08-25T10:55:32.254Z,47.95
2022-08-25T10:56:32.484Z,47.95
2022-08-25T10:57:32.222Z,47.26
2022-08-25T10:58:32.270Z,47.85
2022-08-25T10:59:32.229Z,47.63
2022-08-25T11:00:33.261Z,46.92
2022-08-25T11:01:38.946Z,47.12
2022-08-25T11:02:32.235Z,46.41
2022-08-25T11:03:35.371Z,46.11
2022-08-25T11:04:32.165Z,46.41
2022-08-25T11:05:32.274Z,46.21
2022-08-25T11:06:32.099Z,45.92
2022-08-25T11:07:32.162Z,46.21
2022-08-25T11:08:32.107Z,45.62
2022-08-25T11:09:32.174Z,46.25
2022-08-25T11:10:32.062Z,47.06
2022-08-25T11:11:32.040Z,47.83
2022-08-25T11:12:32.020Z,47.12
2022-08-25T11:13:32.045Z,46.31
2022-08-25T11:14:34.534Z,46.50
2022-08-25T11:15:32.159Z,45.50
2022-08-25T11:16:32.040Z,45.28
2022-08-25T11:17:31.944Z,45.48
2022-08-25T11:18:31.953Z,44.87
2022-08-25T11:19:32.734Z,44.77
2022-08-25T11:20:31.960Z,44.89
2022-08-25T11:21:31.914Z,44.71
2022-08-25T11:22:31.919Z,45.62
2022-08-25T11:23:31.898Z,46.11
2022-08-25T11:24:31.871Z,45.89
2022-08-25T11:25:31.891Z,45.32
2022-08-25T11:26:34.918Z,46.33
2022-08-25T11:27:31.859Z,45.81
2022-08-25T11:28:31.816Z,45.94
2022-08-25T11:29:31.801Z,46.60
2022-08-25T11:30:31.854Z,46.11
2022-08-25T11:31:31.789Z,46.01
2022-08-25T11:32:31.769Z,45.60
2022-08-25T11:33:31.758Z,46.11
2022-08-25T11:34:31.766Z,45.99
2022-08-25T11:35:31.742Z,45.79
2022-08-25T11:36:31.726Z,45.38
2022-08-25T11:37:31.699Z,44.62
2022-08-25T11:38:31.710Z,45.32
2022-08-25T11:39:34.518Z,45.64
2022-08-25T11:40:31.723Z,46.13
2022-08-25T11:41:31.639Z,45.62
2022-08-25T11:42:31.649Z,45.52
2022-08-25T11:43:31.623Z,46.11
2022-08-25T11:44:31.660Z,46.50
2022-08-25T11:45:31.600Z,45.89
2022-08-25T11:46:31.621Z,45.70
2022-08-25T11:47:31.563Z,45.50
2022-08-25T11:48:31.652Z,45.60
2022-08-25T11:49:31.572Z,45.40
2022-08-25T11:50:31.538Z,45.67
2022-08-25T11:51:33.839Z,44.79
2022-08-25T11:52:32.200Z,44.59
2022-08-25T11:53:31.511Z,44.40
2022-08-25T11:54:31.479Z,44.62
2022-08-25T11:55:31.533Z,45.20
2022-08-25T11:56:31.492Z,45.62
2022-08-25T11:57:31.447Z,45.62
2022-08-25T11:58:31.476Z,45.74
2022-08-25T11:59:31.413Z,45.62
2022-08-25T12:00:31.409Z,45.03
2022-08-25T12:01:31.409Z,45.32
2022-08-25T12:02:31.394Z,46.01
2022-08-25T12:03:31.472Z,45.70
2022-08-25T12:04:31.485Z,45.26
2022-08-25T12:05:31.381Z,43.96
2022-08-25T12:06:31.353Z,43.57
2022-08-25T12:07:31.339Z,43.76
2022-08-25T12:08:31.292Z,44.16
2022-08-25T12:09:31.320Z,43.86
2022-08-25T12:10:31.323Z,43.27
2022-08-25T12:11:31.284Z,43.79
2022-08-25T12:12:31.255Z,43.98
2022-08-25T12:13:31.284Z,44.37
2022-08-25T12:14:31.267Z,44.27
2022-08-25T12:15:31.226Z,44.08
2022-08-25T12:16:31.315Z,43.79
2022-08-25T12:17:31.190Z,43.59
2022-08-25T12:18:31.173Z,44.20
2022-08-25T12:19:31.642Z,43.88
2022-08-25T12:20:31.151Z,44.37
2022-08-25T12:21:31.128Z,43.37
2022-08-25T12:22:31.128Z,43.47
2022-08-25T12:23:31.102Z,42.96
2022-08-25T12:24:31.169Z,42.76
2022-08-25T12:25:31.099Z,42.57
2022-08-25T12:26:31.074Z,42.37
2022-08-25T12:27:34.076Z,42.96
2022-08-25T12:28:35.048Z,42.66
2022-08-25T12:29:31.022Z,42.49
2022-08-25T12:30:31.263Z,43.19
2022-08-25T12:31:31.003Z,44.08
2022-08-25T12:32:31.004Z,43.66
2022-08-25T12:33:31.024Z,43.37
2022-08-25T12:34:30.953Z,43.37
2022-08-25T12:35:30.946Z,43.57
2022-08-25T12:36:30.956Z,43.76
2022-08-25T12:37:30.935Z,43.18
2022-08-25T12:38:30.933Z,43.26
2022-08-25T12:39:30.897Z,43.26
2022-08-25T12:40:30.969Z,42.74
2022-08-25T12:41:31.245Z,42.65
2022-08-25T12:42:30.879Z,42.45
2022-08-25T12:43:37.215Z,42.35
2022-08-25T12:44:30.951Z,42.49
2022-08-25T12:45:30.822Z,43.12
2022-08-25T12:46:30.895Z,43.80
2022-08-25T12:47:30.855Z,43.61
2022-08-25T12:48:30.773Z,43.51
2022-08-25T12:49:30.805Z,43.32
2022-08-25T12:50:30.999Z,43.71
2022-08-25T12:51:30.757Z,44.01
2022-08-25T12:52:30.755Z,43.41
2022-08-25T12:53:30.727Z,43.51